Brooksville, Florida
Current Conditions -  °F | °C
As of 9:53 PM on Friday 28 Nov 2014 (Local Time) from KBKV Reporting Station
Clear Clear  
Wind Chill: 42°   Ceiling: Unl
Heat Index: 44°   Visibility: 10mi
Dew Point: 40°   Wind: 5mph
Humidity: 85%   Direction: 40°NE
Pressure: 30.32"   Gusts: NA
Location:  28.55°N, 82.39°W
Report Text: KBKV 290253Z AUTO 04004KT 10SM CLR 07/04 A3032 RMK AO2 SLP265 T00670044 51010
Loading
Personal Weather Stations






























Interactive Weather Map New forecast layout! Learn more

10-Day Weather Forecast

Advertisements
Track Severe Weather on mobile